^^

Nearby METAR Reports

 

EGHH - Bournemouth Airp, United Kingdom
Distance from station: S 10mi, 17km
Updated: 25/05/2020 17:50
NOT Current
Clear
Clear
 Wind from S
Wind: S 8 mph , 13 km/h
Temperature: 21°C
Dew Point: 7°C
Humidity: 40%
Barometer: 1034 hPa
Summary: Clear
Visibility: greater than 7 miles , 10 km
2020/05/25 16:50 EGHH 251650Z 17007KT 140V200 CAVOK 21/07 Q1034
EGDM - Boscombe Down, United Kingdom
Distance from station: N 16mi, 26km
Updated: 25/05/2020 23:50
Clear
Clear
 Wind from NW
Wind: NW 7 mph , 11 km/h
Temperature: 13°C
Dew Point: 8°C
Humidity: 72%
Barometer: 1035 hPa
Clouds: Clear
Visibility: 6 miles , 10 km
2020/05/25 22:50 EGDM 252250Z AUTO 31006KT 9999 NCD 13/08 Q1035
 
EGVP - Middle Wallop, United Kingdom
Distance from station: NE 17mi, 27km
Updated: 25/05/2020 23:50
Clear
Clear
 Wind from NW
Wind: NW 3 mph , 6 km/h
Temperature: 14°C
Dew Point: 8°C
Humidity: 67%
Barometer: 1035 hPa
Clouds: Clear
Visibility: 6 miles , 10 km
2020/05/25 22:50 EGVP 252250Z AUTO 31003KT 9999 NCD 14/08 Q1035
EGHI - Southampton Wx C, United Kingdom
Distance from station: E 19mi, 31km
Updated: 25/05/2020 14:20
NOT Current
Few Clouds
Few Clouds
 Wind from SSE
Wind: SSE 8 mph , 13 km/h
Temperature: 22°C
Dew Point: 10°C
Humidity: 47%
Barometer: 1035 hPa
Clouds: Few Clouds
Visibility: 6 miles , 10 km
Cloud details: Few Clouds 1463 m
2020/05/25 13:20 EGHI 251320Z 15007KT 110V220 9999 FEW048 22/10 Q1035
 
EGDY - Yeovilton (navy), United Kingdom
Distance from station: W 36mi, 58km
Updated: 25/05/2020 23:50
Clear
Clear
 Wind from W
Wind: W 2 mph , 4 km/h
Temperature: 12°C
Dew Point: 7°C
Humidity: 72%
Barometer: 1035 hPa
Clouds: Clear
Visibility: 6 miles , 10 km
2020/05/25 22:50 EGDY 252250Z AUTO 28002KT 9999 NCD 12/07 Q1035
EGUO - Colerne Raf, United Kingdom
Distance from station: NNW 41mi, 66km
Updated: 14/02/2019 22:50
NOT Current
Clear
Clear
 Wind from ENE
Wind: ENE 1 mph , 2 km/h
Temperature: 1°C
Dew Point: 0°C
Humidity: 93%
Barometer: 1029 hPa
Summary: Clear
Visibility: greater than 7 miles , 10 km
2019/02/14 22:50 EGUO 142250Z 06001KT CAVOK 01/00 Q1029 BLU NOSIG
 
EGVO - Odiham Raf, United Kingdom
Distance from station: ENE 42mi, 68km
Updated: 25/05/2020 23:50
Clear
Clear
 Wind from SW
Wind: SW 7 mph , 11 km/h
Temperature: 15°C
Dew Point: 7°C
Humidity: 59%
Barometer: 1035 hPa
Clouds: Clear
Visibility: 6 miles , 10 km
2020/05/25 22:50 EGVO 252250Z AUTO 23006KT 9999 NCD 15/07 Q1035
EGGD - Bristol/Lulsgate, United Kingdom
Distance from station: NW 50mi, 81km
Updated: 25/05/2020 23:50
Clear
Clear
 Wind from WSW
Wind: WSW 6 mph , 9 km/h
Temperature: 12°C
Dew Point: 7°C
Humidity: 72%
Barometer: 1035 hPa
Clouds: Clear
Visibility: 6 miles , 10 km
2020/05/25 22:50 EGGD 252250Z AUTO 24005KT 9999 NCD 12/07 Q1035